Time;durP1;ratioP1;P1;durP2;ratioP2;P2;SDS_P1;SDS_P2;PMS_P1;PMS_P2;Temp;Humidity;BMP_temperature;BMP_pressure;BME280_temperature;BME280_humidity;BME280_pressure;Samples;Min_cycle;Max_cycle;Signal;HPM_P1;HPM_P2
2023/05/19 00:01:12;;;;;;;6.10;3.10;;;;;;;;;;4932620;29;20472;-90
2023/05/19 00:03:39;;;;;;;5.73;3.13;;;;;;;;;;4929210;29;20937;-89
2023/05/19 00:06:05;;;;;;;8.07;2.70;;;;;;;;;;4919530;29;21159;-89
2023/05/19 00:08:31;;;;;;;9.13;2.97;;;;;;;;;;4936971;29;20428;-89
2023/05/19 00:10:57;;;;;;;4.87;2.80;;;;;;;;;;4922149;29;20776;-89
2023/05/19 00:13:23;;;;;;;3.53;2.70;;;;;;;;;;4946779;29;20438;-89
2023/05/19 00:15:50;;;;;;;7.70;3.30;;;;;;;;;;4922026;29;20443;-89
2023/05/19 00:18:16;;;;;;;7.00;2.70;;;;;;;;;;4926411;29;20540;-89
2023/05/19 00:20:42;;;;;;;7.10;2.70;;;;;;;;;;4917876;29;20469;-89
2023/05/19 00:23:08;;;;;;;2.90;2.37;;;;;;;;;;4918764;29;20432;-89
2023/05/19 00:25:34;;;;;;;4.67;2.50;;;;;;;;;;4919037;29;20548;-90
2023/05/19 00:28:01;;;;;;;3.40;2.50;;;;;;;;;;4908046;29;20424;-89
2023/05/19 00:30:28;;;;;;;4.17;2.77;;;;;;;;;;4919507;29;20437;-89
2023/05/19 00:32:54;;;;;;;5.73;2.47;;;;;;;;;;4919438;29;20488;-89
2023/05/19 00:35:20;;;;;;;6.27;2.80;;;;;;;;;;4916733;29;20890;-89
2023/05/19 00:37:47;;;;;;;3.03;2.53;;;;;;;;;;4924717;29;20420;-90
2023/05/19 00:40:13;;;;;;;4.77;3.07;;;;;;;;;;4923315;29;20431;-89
2023/05/19 00:42:39;;;;;;;3.87;2.33;;;;;;;;;;4916882;29;20437;-89
2023/05/19 00:45:05;;;;;;;5.20;2.80;;;;;;;;;;4919958;29;20464;-90
2023/05/19 00:47:32;;;;;;;3.70;2.57;;;;;;;;;;4917413;29;20895;-90
2023/05/19 00:49:58;;;;;;;4.10;3.00;;;;;;;;;;4920442;29;20453;-90
2023/05/19 00:52:24;;;;;;;5.27;2.90;;;;;;;;;;4934149;29;20514;-89
2023/05/19 00:54:51;;;;;;;10.87;4.47;;;;;;;;;;4921890;29;20456;-89
2023/05/19 00:57:17;;;;;;;4.47;2.70;;;;;;;;;;4938139;29;20519;-89
2023/05/19 00:59:43;;;;;;;3.37;3.07;;;;;;;;;;4936889;29;20933;-89
2023/05/19 01:02:09;;;;;;;7.17;2.50;;;;;;;;;;4938300;29;20478;-90
2023/05/19 01:04:35;;;;;;;3.40;2.40;;;;;;;;;;4935858;29;20874;-90
2023/05/19 01:07:01;;;;;;;8.13;2.80;;;;;;;;;;4938487;29;20446;-89
2023/05/19 01:09:27;;;;;;;3.20;2.40;;;;;;;;;;4919355;29;20509;-89
2023/05/19 01:11:53;;;;;;;3.93;2.40;;;;;;;;;;4927116;29;20429;-88
2023/05/19 01:14:19;;;;;;;5.07;2.90;;;;;;;;;;4923188;29;20488;-89
2023/05/19 01:16:48;;;;;;;7.30;2.70;;;;;;;;;;4918588;29;20448;-89
2023/05/19 01:19:33;;;;;;;3.70;2.37;;;;;;;;;;4939460;29;20440;-88
2023/05/19 01:22:06;;;;;;;4.50;2.90;;;;;;;;;;4936497;29;20971;-89
2023/05/19 01:24:38;;;;;;;5.40;2.80;;;;;;;;;;4935408;29;20990;-89
2023/05/19 01:27:04;;;;;;;5.87;2.87;;;;;;;;;;4942390;29;20435;-89
2023/05/19 01:29:56;;;;;;;5.07;2.87;;;;;;;;;;4923999;29;20452;-89
2023/05/19 01:32:22;;;;;;;2.47;2.20;;;;;;;;;;4898688;29;20447;-89
2023/05/19 01:34:48;;;;;;;5.80;2.63;;;;;;;;;;4920108;29;20455;-88
2023/05/19 01:37:15;;;;;;;7.27;2.60;;;;;;;;;;4928790;29;20463;-89
2023/05/19 01:39:41;;;;;;;4.07;2.33;;;;;;;;;;4935567;29;20439;-91
2023/05/19 01:42:07;;;;;;;4.43;2.43;;;;;;;;;;4920293;29;20955;-90
2023/05/19 01:44:33;;;;;;;3.77;2.50;;;;;;;;;;4939002;28;20466;-88
2023/05/19 01:46:59;;;;;;;2.60;2.00;;;;;;;;;;4937338;28;20440;-89
2023/05/19 01:49:25;;;;;;;5.50;2.60;;;;;;;;;;4936281;29;20432;-88
2023/05/19 01:51:52;;;;;;;5.73;2.57;;;;;;;;;;4921576;29;20447;-90
2023/05/19 01:54:18;;;;;;;4.07;2.23;;;;;;;;;;4925925;29;20523;-89
2023/05/19 01:56:44;;;;;;;6.60;2.70;;;;;;;;;;4936229;29;20963;-88
2023/05/19 01:59:16;;;;;;;5.70;2.70;;;;;;;;;;4935384;29;20470;-88
2023/05/19 02:01:46;;;;;;;3.30;2.23;;;;;;;;;;4931994;29;20437;-88
2023/05/19 02:04:12;;;;;;;5.30;2.57;;;;;;;;;;4938560;29;20494;-88
2023/05/19 02:06:42;;;;;;;7.93;2.10;;;;;;;;;;4934057;29;20883;-88
2023/05/19 02:09:12;;;;;;;11.73;2.80;;;;;;;;;;4946718;29;20493;-89
2023/05/19 02:12:02;;;;;;;2.70;2.17;;;;;;;;;;4935502;28;20440;-88
2023/05/19 02:14:33;;;;;;;7.07;2.90;;;;;;;;;;4928339;29;20463;-88
2023/05/19 02:16:59;;;;;;;4.23;3.00;;;;;;;;;;4918400;29;20452;-89
2023/05/19 02:19:31;;;;;;;4.00;2.20;;;;;;;;;;4925381;29;20463;-89
2023/05/19 02:21:57;;;;;;;3.50;2.73;;;;;;;;;;4936053;29;20451;-89
2023/05/19 02:24:23;;;;;;;7.40;2.80;;;;;;;;;;4932391;29;20458;-89
2023/05/19 02:26:50;;;;;;;4.63;2.43;;;;;;;;;;4936716;29;20456;-89
2023/05/19 02:29:16;;;;;;;8.20;2.87;;;;;;;;;;4920792;29;20431;-90
2023/05/19 02:31:45;;;;;;;3.77;2.80;;;;;;;;;;4915645;29;20424;-89
2023/05/19 02:34:11;;;;;;;4.93;2.93;;;;;;;;;;4920017;29;20436;-89
2023/05/19 02:36:39;;;;;;;4.70;2.33;;;;;;;;;;4921684;29;20499;-90
2023/05/19 02:39:05;;;;;;;5.23;2.20;;;;;;;;;;4924252;29;20435;-90
2023/05/19 02:41:31;;;;;;;4.70;2.87;;;;;;;;;;4919289;29;20443;-91
2023/05/19 02:43:57;;;;;;;3.20;2.63;;;;;;;;;;4922929;29;20919;-90
2023/05/19 02:46:23;;;;;;;3.67;2.90;;;;;;;;;;4939037;29;20436;-90
2023/05/19 02:48:50;;;;;;;4.70;2.77;;;;;;;;;;4924925;29;20433;-90
2023/05/19 02:51:16;;;;;;;3.60;2.63;;;;;;;;;;4934704;29;20507;-90
2023/05/19 02:53:42;;;;;;;9.83;3.30;;;;;;;;;;4933120;29;20421;-91
2023/05/19 02:56:08;;;;;;;3.70;2.93;;;;;;;;;;4933901;29;21002;-91
2023/05/19 02:58:34;;;;;;;6.23;2.50;;;;;;;;;;4935152;29;20479;-91
2023/05/19 03:01:01;;;;;;;5.50;3.63;;;;;;;;;;4940872;29;20439;-90
2023/05/19 03:03:27;;;;;;;6.10;2.93;;;;;;;;;;4920733;29;20423;-90
2023/05/19 03:05:53;;;;;;;3.47;2.50;;;;;;;;;;4936426;29;20525;-91
2023/05/19 03:08:19;;;;;;;6.97;2.23;;;;;;;;;;4936803;29;20432;-91
2023/05/19 03:10:46;;;;;;;6.00;2.90;;;;;;;;;;4942182;29;20431;-92
2023/05/19 03:13:12;;;;;;;9.13;3.17;;;;;;;;;;4947041;29;20511;-90
2023/05/19 03:15:38;;;;;;;4.40;2.80;;;;;;;;;;4933673;29;21231;-89
2023/05/19 03:18:05;;;;;;;3.70;2.57;;;;;;;;;;4915442;29;20543;-91
2023/05/19 03:20:31;;;;;;;6.50;3.93;;;;;;;;;;4936378;29;20443;-91
2023/05/19 03:22:57;;;;;;;3.83;2.20;;;;;;;;;;4943810;29;20954;-89
2023/05/19 03:25:23;;;;;;;6.50;2.90;;;;;;;;;;4927373;29;20548;-90
2023/05/19 03:27:49;;;;;;;7.40;3.00;;;;;;;;;;4921333;29;20440;-90
2023/05/19 03:30:15;;;;;;;5.27;2.80;;;;;;;;;;4920775;29;20436;-89
2023/05/19 03:32:41;;;;;;;6.33;2.67;;;;;;;;;;4920774;29;20518;-90
2023/05/19 03:35:07;;;;;;;4.70;2.80;;;;;;;;;;4916045;29;20440;-90
2023/05/19 03:37:33;;;;;;;6.23;2.80;;;;;;;;;;4942694;29;20471;-90
2023/05/19 03:39:59;;;;;;;3.30;2.53;;;;;;;;;;4932389;29;20443;-89
2023/05/19 03:42:25;;;;;;;6.33;2.97;;;;;;;;;;4935304;29;20470;-90
2023/05/19 03:44:51;;;;;;;4.47;2.53;;;;;;;;;;4939121;29;20463;-90
2023/05/19 03:47:17;;;;;;;4.23;2.60;;;;;;;;;;4940241;29;20474;-90
2023/05/19 03:49:43;;;;;;;6.80;2.97;;;;;;;;;;4943884;29;20440;-90
2023/05/19 03:52:09;;;;;;;9.93;2.93;;;;;;;;;;4940077;29;20728;-89
2023/05/19 03:54:38;;;;;;;5.20;3.10;;;;;;;;;;4938757;28;20443;-90
2023/05/19 03:57:04;;;;;;;4.57;2.60;;;;;;;;;;4938590;29;20450;-89
2023/05/19 03:59:30;;;;;;;7.43;3.30;;;;;;;;;;4935901;29;20972;-90
2023/05/19 04:01:58;;;;;;;5.03;3.00;;;;;;;;;;4945090;29;20463;-96
2023/05/19 04:04:25;;;;;;;5.50;3.40;;;;;;;;;;4947237;29;20464;-95
2023/05/19 04:06:51;;;;;;;4.60;2.80;;;;;;;;;;4941557;29;20432;-96
2023/05/19 04:09:18;;;;;;;3.20;2.80;;;;;;;;;;4947192;29;20959;-94
2023/05/19 04:11:46;;;;;;;7.77;3.60;;;;;;;;;;4939391;29;20446;-95
2023/05/19 04:14:11;;;;;;;10.63;4.17;;;;;;;;;;4941510;29;20502;-89
2023/05/19 04:16:40;;;;;;;4.17;3.00;;;;;;;;;;4923467;29;20776;-89
2023/05/19 04:19:06;;;;;;;10.40;2.93;;;;;;;;;;4919426;29;20447;-90
2023/05/19 04:21:32;;;;;;;7.67;3.27;;;;;;;;;;4937180;29;20514;-89
2023/05/19 04:23:58;;;;;;;4.37;3.23;;;;;;;;;;4929893;29;20437;-88
2023/05/19 04:26:25;;;;;;;4.37;2.93;;;;;;;;;;4921762;29;20443;-88
2023/05/19 04:28:52;;;;;;;6.80;3.50;;;;;;;;;;4936037;29;20436;-90
2023/05/19 04:31:20;;;;;;;3.90;3.30;;;;;;;;;;4934843;29;20443;-88
2023/05/19 04:33:47;;;;;;;10.67;3.13;;;;;;;;;;4934951;29;20439;-89
2023/05/19 04:36:13;;;;;;;5.83;3.00;;;;;;;;;;4929521;29;20437;-90
2023/05/19 04:38:39;;;;;;;3.63;2.60;;;;;;;;;;4934279;29;20814;-90
2023/05/19 04:41:10;;;;;;;4.83;3.30;;;;;;;;;;4933618;29;20444;-89
2023/05/19 04:43:40;;;;;;;12.83;3.40;;;;;;;;;;4931865;29;20435;-89
2023/05/19 04:46:10;;;;;;;6.90;3.27;;;;;;;;;;4922391;28;20529;-89
2023/05/19 04:48:36;;;;;;;4.30;3.07;;;;;;;;;;4936214;29;20423;-90
2023/05/19 04:51:02;;;;;;;3.77;2.87;;;;;;;;;;4921617;29;20529;-91
2023/05/19 04:53:28;;;;;;;4.90;2.90;;;;;;;;;;4933239;29;20864;-91
2023/05/19 04:55:57;;;;;;;6.03;3.40;;;;;;;;;;4939347;29;20443;-91
2023/05/19 04:58:24;;;;;;;5.23;2.97;;;;;;;;;;4941203;29;20443;-92
2023/05/19 05:00:51;;;;;;;4.20;3.00;;;;;;;;;;4935772;29;20439;-91
2023/05/19 05:03:17;;;;;;;5.83;3.80;;;;;;;;;;4936968;29;20494;-91
2023/05/19 05:05:43;;;;;;;6.57;3.40;;;;;;;;;;4921254;29;20498;-92
2023/05/19 05:08:10;;;;;;;3.37;3.07;;;;;;;;;;4940107;29;20436;-92
2023/05/19 05:10:36;;;;;;;4.13;3.23;;;;;;;;;;4924172;29;21621;-91
2023/05/19 05:13:02;;;;;;;4.50;3.40;;;;;;;;;;4916752;29;20447;-91
2023/05/19 05:15:28;;;;;;;8.40;4.90;;;;;;;;;;4923542;29;20432;-92
2023/05/19 05:17:55;;;;;;;3.40;3.10;;;;;;;;;;4917923;29;20440;-91
2023/05/19 05:20:21;;;;;;;6.00;4.10;;;;;;;;;;4938801;29;20496;-92
2023/05/19 05:22:47;;;;;;;7.77;3.40;;;;;;;;;;4922066;29;20446;-91
2023/05/19 05:25:14;;;;;;;4.17;3.00;;;;;;;;;;4923320;29;20464;-90
2023/05/19 05:27:40;;;;;;;6.37;3.10;;;;;;;;;;4940449;29;20431;-91
2023/05/19 05:30:06;;;;;;;6.53;3.13;;;;;;;;;;4939054;29;20446;-92
2023/05/19 05:32:32;;;;;;;4.30;3.30;;;;;;;;;;4941441;29;20436;-92
2023/05/19 05:34:58;;;;;;;7.03;3.33;;;;;;;;;;4937901;29;20458;-92
2023/05/19 05:37:24;;;;;;;5.93;4.67;;;;;;;;;;4937157;29;20544;-92
2023/05/19 05:39:50;;;;;;;4.00;3.10;;;;;;;;;;4941287;29;20516;-91
2023/05/19 05:42:16;;;;;;;5.30;3.60;;;;;;;;;;4938972;29;20497;-91
2023/05/19 05:44:42;;;;;;;5.97;3.67;;;;;;;;;;4938755;29;20640;-93
2023/05/19 05:47:08;;;;;;;6.33;2.43;;;;;;;;;;4939860;29;20440;-91
2023/05/19 05:49:37;;;;;;;3.10;2.50;;;;;;;;;;4937570;29;20466;-92
2023/05/19 05:52:03;;;;;;;4.20;2.83;;;;;;;;;;4944574;29;20443;-92
2023/05/19 05:54:29;;;;;;;5.10;2.90;;;;;;;;;;4940579;29;20462;-92
2023/05/19 05:56:56;;;;;;;6.43;3.23;;;;;;;;;;4942230;29;20444;-92
2023/05/19 05:59:22;;;;;;;5.53;3.27;;;;;;;;;;4939090;29;20485;-91
2023/05/19 06:01:48;;;;;;;2.90;2.50;;;;;;;;;;4938765;29;20444;-93
2023/05/19 06:04:14;;;;;;;5.00;3.20;;;;;;;;;;4934447;29;20463;-92
2023/05/19 06:06:40;;;;;;;6.40;2.90;;;;;;;;;;4928366;29;20490;-94
2023/05/19 06:09:06;;;;;;;5.50;3.03;;;;;;;;;;4940302;29;20515;-91
2023/05/19 06:11:32;;;;;;;4.23;3.00;;;;;;;;;;4926149;29;20439;-92
2023/05/19 06:13:58;;;;;;;11.80;3.47;;;;;;;;;;4936669;29;20420;-91
2023/05/19 06:37:09;;;;;;;5.33;3.40;;;;;;;;;;4945821;29;20511;-92
2023/05/19 06:39:35;;;;;;;7.10;3.23;;;;;;;;;;4908838;29;20427;-92
2023/05/19 06:42:01;;;;;;;9.80;3.50;;;;;;;;;;4929330;29;20454;-91
2023/05/19 06:44:27;;;;;;;6.70;3.50;;;;;;;;;;4920094;29;20450;-91
2023/05/19 06:46:54;;;;;;;5.60;3.73;;;;;;;;;;4943438;29;21029;-95
2023/05/19 06:49:20;;;;;;;5.03;3.17;;;;;;;;;;4932040;29;20440;-91
2023/05/19 06:51:46;;;;;;;3.00;2.67;;;;;;;;;;4914592;29;20425;-91
2023/05/19 06:54:14;;;;;;;7.50;3.30;;;;;;;;;;4945516;29;20435;-91
2023/05/19 06:56:40;;;;;;;5.83;3.13;;;;;;;;;;4912461;29;20471;-91
2023/05/19 06:59:06;;;;;;;6.27;3.80;;;;;;;;;;4927656;29;20472;-90
2023/05/19 07:01:33;;;;;;;5.83;3.43;;;;;;;;;;4909056;29;20547;-91
2023/05/19 07:03:59;;;;;;;4.40;3.03;;;;;;;;;;4938056;29;20436;-90
2023/05/19 07:06:25;;;;;;;6.57;3.27;;;;;;;;;;4899741;29;20726;-91
2023/05/19 07:08:51;;;;;;;5.00;3.00;;;;;;;;;;4942117;29;20435;-91
2023/05/19 07:11:17;;;;;;;11.60;3.83;;;;;;;;;;4903952;29;20427;-91
2023/05/19 07:13:43;;;;;;;5.40;4.00;;;;;;;;;;4915612;29;20445;-91
2023/05/19 07:16:14;;;;;;;9.00;3.00;;;;;;;;;;4948491;29;20456;-93
2023/05/19 07:18:41;;;;;;;4.20;3.53;;;;;;;;;;4934997;29;20419;-93
2023/05/19 07:21:07;;;;;;;5.37;2.63;;;;;;;;;;4943342;29;20993;-94
2023/05/19 07:23:33;;;;;;;8.13;3.10;;;;;;;;;;4945543;29;20931;-93
2023/05/19 07:25:59;;;;;;;7.00;4.80;;;;;;;;;;4918139;29;20480;-90
2023/05/19 07:28:25;;;;;;;7.73;4.00;;;;;;;;;;4940090;29;21118;-89
2023/05/19 07:30:51;;;;;;;10.93;3.70;;;;;;;;;;4915929;29;21216;-90
2023/05/19 07:33:17;;;;;;;3.13;2.40;;;;;;;;;;4933899;29;20466;-90
2023/05/19 07:35:46;;;;;;;6.60;2.87;;;;;;;;;;4934170;29;20440;-94
2023/05/19 07:38:12;;;;;;;5.10;3.60;;;;;;;;;;4929741;29;20447;-91
2023/05/19 07:40:38;;;;;;;7.53;3.20;;;;;;;;;;4927169;29;20440;-91
2023/05/19 07:43:04;;;;;;;7.93;3.70;;;;;;;;;;4926732;29;21003;-91
2023/05/19 07:45:30;;;;;;;3.80;2.80;;;;;;;;;;4912715;29;20475;-90
2023/05/19 07:47:56;;;;;;;4.47;3.10;;;;;;;;;;4928232;29;20569;-91
2023/05/19 07:50:22;;;;;;;5.63;2.90;;;;;;;;;;4931170;29;20545;-91
2023/05/19 07:52:48;;;;;;;6.97;3.30;;;;;;;;;;4912113;29;20575;-91
2023/05/19 07:55:14;;;;;;;7.43;3.47;;;;;;;;;;4937875;29;20508;-91
2023/05/19 07:57:43;;;;;;;5.57;3.23;;;;;;;;;;4945038;29;20526;-96
2023/05/19 08:00:10;;;;;;;7.87;4.07;;;;;;;;;;4943861;28;20528;-95
2023/05/19 08:02:36;;;;;;;6.43;3.40;;;;;;;;;;4945847;29;20416;-93
2023/05/19 08:05:02;;;;;;;8.40;3.37;;;;;;;;;;4921522;29;20465;-93
2023/05/19 09:22:48;;;;;;;5.40;2.80;;;;;;;;;;4939957;29;20483;-95
2023/05/19 09:25:18;;;;;;;6.07;3.30;;;;;;;;;;4927421;29;21039;-95
2023/05/19 09:27:45;;;;;;;4.23;3.30;;;;;;;;;;4923478;29;20423;-94
2023/05/19 09:30:21;;;;;;;7.23;3.17;;;;;;;;;;4943022;29;20440;-94
2023/05/19 09:32:47;;;;;;;17.70;3.67;;;;;;;;;;4943721;29;21041;-93
2023/05/19 09:35:15;;;;;;;8.40;3.87;;;;;;;;;;4917501;29;20491;-94
2023/05/19 09:37:42;;;;;;;6.73;3.20;;;;;;;;;;4903159;29;20464;-93
2023/05/19 09:40:09;;;;;;;4.97;3.37;;;;;;;;;;4929528;29;20433;-95
2023/05/19 09:42:37;;;;;;;7.17;3.00;;;;;;;;;;4935864;29;20470;-94
2023/05/19 09:45:06;;;;;;;6.90;3.50;;;;;;;;;;4927361;29;20468;-95
2023/05/19 09:47:36;;;;;;;6.77;2.93;;;;;;;;;;4938368;29;20416;-96
2023/05/19 09:50:03;;;;;;;11.23;3.80;;;;;;;;;;4926433;29;20437;-94
2023/05/19 09:52:30;;;;;;;8.37;2.70;;;;;;;;;;4911022;29;20448;-95
2023/05/19 09:54:56;;;;;;;6.80;3.63;;;;;;;;;;4917705;29;20441;-94
2023/05/19 09:57:52;;;;;;;4.77;3.70;;;;;;;;;;4934656;29;20437;-95
2023/05/19 15:21:53;;;;;;;9.07;4.20;;;;;;;;;;750808;23;20739;-94
2023/05/19 15:24:19;;;;;;;11.10;3.40;;;;;;;;;;4968165;28;20514;-95
2023/05/19 15:26:45;;;;;;;6.40;3.63;;;;;;;;;;4953302;28;20480;-95
2023/05/19 15:29:11;;;;;;;4.90;2.93;;;;;;;;;;4965988;28;20417;-94
2023/05/19 15:31:37;;;;;;;10.10;3.73;;;;;;;;;;4951193;28;20444;-95
2023/05/19 15:34:04;;;;;;;7.67;4.00;;;;;;;;;;4970986;28;20462;-95
2023/05/19 15:36:30;;;;;;;6.63;3.10;;;;;;;;;;4969760;28;20927;-96
2023/05/19 15:38:56;;;;;;;3.80;2.87;;;;;;;;;;4954451;28;20441;-95
2023/05/19 15:41:22;;;;;;;4.37;3.37;;;;;;;;;;4970735;28;20433;-94
2023/05/19 15:43:48;;;;;;;6.20;3.50;;;;;;;;;;4944201;28;20450;-95
2023/05/19 15:46:14;;;;;;;11.33;3.60;;;;;;;;;;4976789;28;20458;-94
2023/05/19 15:48:42;;;;;;;6.43;3.27;;;;;;;;;;4955651;28;20430;-95
2023/05/19 15:51:08;;;;;;;5.60;3.60;;;;;;;;;;4985259;28;20421;-94
2023/05/19 15:53:37;;;;;;;4.80;3.43;;;;;;;;;;4953882;28;20503;-94
2023/05/19 15:56:03;;;;;;;4.97;3.47;;;;;;;;;;4953455;28;20453;-94
2023/05/19 15:58:29;;;;;;;5.20;3.10;;;;;;;;;;4959613;28;20489;-94
2023/05/19 16:00:56;;;;;;;7.00;3.30;;;;;;;;;;4984107;28;20960;-93
2023/05/19 16:03:22;;;;;;;3.97;3.13;;;;;;;;;;4949258;28;21246;-94
2023/05/19 16:05:48;;;;;;;7.23;3.50;;;;;;;;;;4947459;28;20479;-95
2023/05/19 16:08:14;;;;;;;6.17;3.60;;;;;;;;;;4952067;28;20441;-95
2023/05/19 16:10:40;;;;;;;6.17;3.67;;;;;;;;;;4981990;28;20466;-95
2023/05/19 16:13:12;;;;;;;4.37;3.83;;;;;;;;;;4957704;28;20442;-95
2023/05/19 16:15:38;;;;;;;5.87;3.20;;;;;;;;;;4944128;29;20482;-95
2023/05/19 16:18:04;;;;;;;5.13;3.77;;;;;;;;;;4923381;29;20443;-94
2023/05/19 16:20:30;;;;;;;6.87;3.23;;;;;;;;;;4932901;29;20811;-94
2023/05/19 16:22:56;;;;;;;4.00;3.30;;;;;;;;;;4927924;28;20459;-94
2023/05/19 16:25:23;;;;;;;3.50;3.20;;;;;;;;;;4912994;29;20470;-95
2023/05/19 16:27:49;;;;;;;5.80;3.37;;;;;;;;;;4929508;29;20480;-96
2023/05/19 16:30:19;;;;;;;7.73;4.10;;;;;;;;;;4930020;29;20527;-93
2023/05/19 16:32:45;;;;;;;4.13;3.20;;;;;;;;;;4925663;29;20470;-91
2023/05/19 16:35:12;;;;;;;5.03;3.00;;;;;;;;;;4928326;29;20444;-94
2023/05/19 16:37:38;;;;;;;4.33;3.30;;;;;;;;;;4929565;29;20443;-94
2023/05/19 16:40:05;;;;;;;4.60;3.60;;;;;;;;;;4933563;29;20444;-93
2023/05/19 16:42:31;;;;;;;10.50;3.50;;;;;;;;;;4936486;29;20470;-93
2023/05/19 16:44:57;;;;;;;7.00;3.77;;;;;;;;;;4924130;29;20464;-94
2023/05/19 16:47:23;;;;;;;4.80;2.77;;;;;;;;;;4959989;28;20438;-92
2023/05/19 16:49:49;;;;;;;6.07;3.10;;;;;;;;;;4966958;28;20528;-93
2023/05/19 16:52:15;;;;;;;5.63;3.30;;;;;;;;;;4965534;28;20430;-94
2023/05/19 16:54:41;;;;;;;4.30;3.13;;;;;;;;;;4977164;28;21027;-94
2023/05/19 16:57:07;;;;;;;3.97;2.97;;;;;;;;;;4966741;28;20439;-94
2023/05/19 16:59:33;;;;;;;4.70;2.90;;;;;;;;;;4963347;28;20552;-93
2023/05/19 17:01:59;;;;;;;5.43;3.10;;;;;;;;;;4962740;28;20450;-95
2023/05/19 17:04:25;;;;;;;4.70;3.53;;;;;;;;;;4963964;28;20445;-94
2023/05/19 17:06:51;;;;;;;8.60;3.83;;;;;;;;;;4961343;28;20473;-94
2023/05/19 17:09:23;;;;;;;4.57;3.33;;;;;;;;;;4964009;28;20410;-94
2023/05/19 17:11:49;;;;;;;4.90;2.60;;;;;;;;;;4980943;28;20434;-93
2023/05/19 17:14:15;;;;;;;3.87;3.00;;;;;;;;;;4980758;28;20449;-94
2023/05/19 17:16:41;;;;;;;4.20;2.93;;;;;;;;;;4979845;28;20417;-93
2023/05/19 17:19:07;;;;;;;4.70;3.97;;;;;;;;;;4948399;28;20442;-94
2023/05/19 17:21:34;;;;;;;4.77;3.27;;;;;;;;;;4948189;28;20453;-95
2023/05/19 17:24:00;;;;;;;6.93;3.13;;;;;;;;;;4964566;28;20453;-96
2023/05/19 17:26:26;;;;;;;4.80;3.40;;;;;;;;;;4966926;28;20493;-94
2023/05/19 17:28:54;;;;;;;4.67;3.10;;;;;;;;;;4953985;28;20453;-95
2023/05/19 17:31:23;;;;;;;4.30;3.30;;;;;;;;;;4972484;28;20672;-95
2023/05/19 17:33:49;;;;;;;4.60;2.90;;;;;;;;;;4960871;28;20530;-95
2023/05/19 17:36:15;;;;;;;10.97;3.07;;;;;;;;;;4981008;28;20434;-96
2023/05/19 17:38:42;;;;;;;4.47;3.53;;;;;;;;;;4984300;28;20528;-95
2023/05/19 17:41:12;;;;;;;4.30;3.17;;;;;;;;;;4964808;28;20536;-95
2023/05/19 17:43:41;;;;;;;4.53;3.00;;;;;;;;;;4981031;28;21028;-95
2023/05/19 17:46:07;;;;;;;4.50;3.77;;;;;;;;;;4962287;28;20473;-95
2023/05/19 17:48:35;;;;;;;3.80;2.63;;;;;;;;;;4964374;28;20430;-95
2023/05/19 17:51:02;;;;;;;6.00;3.40;;;;;;;;;;4967292;28;20452;-95
2023/05/19 17:53:28;;;;;;;11.10;3.90;;;;;;;;;;4968846;28;20414;-96
2023/05/19 17:55:58;;;;;;;7.23;3.13;;;;;;;;;;4966321;28;20445;-95
2023/05/19 17:58:24;;;;;;;4.13;3.73;;;;;;;;;;4964723;28;20498;-95
2023/05/19 18:00:50;;;;;;;5.50;3.13;;;;;;;;;;4949555;28;20438;-96
2023/05/19 18:03:19;;;;;;;6.23;3.50;;;;;;;;;;4971697;28;20446;-96
2023/05/19 18:05:45;;;;;;;5.50;2.70;;;;;;;;;;4955163;28;20533;-94
2023/05/19 18:08:13;;;;;;;3.70;2.57;;;;;;;;;;4978181;28;20450;-94
2023/05/19 18:10:40;;;;;;;5.03;2.97;;;;;;;;;;4986855;28;20484;-95
2023/05/19 18:13:06;;;;;;;9.90;6.07;;;;;;;;;;4961969;28;20477;-94
2023/05/19 18:15:33;;;;;;;3.90;2.67;;;;;;;;;;4971850;28;20440;-96
2023/05/19 18:18:06;;;;;;;6.83;2.57;;;;;;;;;;4953157;28;20466;-96
2023/05/19 18:20:32;;;;;;;3.90;2.93;;;;;;;;;;4969277;28;20949;-94
2023/05/19 18:23:02;;;;;;;5.23;3.47;;;;;;;;;;4959750;28;20492;-94
2023/05/19 18:25:28;;;;;;;4.90;2.80;;;;;;;;;;4966794;28;20556;-94
2023/05/19 18:27:57;;;;;;;3.30;2.60;;;;;;;;;;4973109;28;20437;-95
2023/05/19 18:30:23;;;;;;;4.80;3.50;;;;;;;;;;4980373;28;20533;-93
2023/05/19 18:32:49;;;;;;;5.33;2.97;;;;;;;;;;4968640;28;20456;-94
2023/05/19 18:35:15;;;;;;;3.47;2.90;;;;;;;;;;4948954;28;20442;-93
2023/05/19 18:37:41;;;;;;;7.50;2.70;;;;;;;;;;4982506;28;20972;-94
2023/05/19 18:40:07;;;;;;;5.40;3.10;;;;;;;;;;4964861;28;20430;-94
2023/05/19 18:42:35;;;;;;;3.97;2.97;;;;;;;;;;4971461;28;20455;-95
2023/05/19 18:45:01;;;;;;;12.00;3.43;;;;;;;;;;4944050;29;20467;-92
2023/05/19 18:47:27;;;;;;;9.03;3.30;;;;;;;;;;4960474;28;20455;-93
2023/05/19 18:49:53;;;;;;;4.60;3.03;;;;;;;;;;4940086;29;20514;-93
2023/05/19 18:52:20;;;;;;;3.43;2.67;;;;;;;;;;4943997;29;20461;-94
2023/05/19 18:54:51;;;;;;;5.40;2.83;;;;;;;;;;4947962;29;20439;-93
2023/05/19 18:57:18;;;;;;;3.63;2.83;;;;;;;;;;4959675;29;20446;-94
2023/05/19 18:59:46;;;;;;;3.80;3.20;;;;;;;;;;4946680;29;20420;-96
2023/05/19 19:02:12;;;;;;;3.20;2.80;;;;;;;;;;4973697;28;20426;-93
2023/05/19 19:04:38;;;;;;;5.10;2.93;;;;;;;;;;4958387;28;20988;-94
2023/05/19 19:07:05;;;;;;;4.20;3.40;;;;;;;;;;4944328;28;20419;-96
